Flight Track Log - Related Links

Times and Time Zones

All times are in EST time to prevent confusion due to time zone crossing. See the N100PM flight status page for this flight to view local times or setup timezone preferences in your user account.

Time Position Orientation Groundspeed Altitude Reporting Facility
EST Latitude Longitude Course Direction KTS MPH feet Rate Location/Type
Wed 09:48:00 AM 26.3037 -81.7975 354° North  Level Estimated
Wed 09:49:00 AM 26.3291 -81.7997 356° North  Level FlightAware Approximate
Wed 09:50:00 AM 26.3544 -81.8019 356° North  Level FlightAware Approximate
Wed 09:51:00 AM 26.3797 -81.8041 356° North  Level FlightAware Approximate
Wed 09:52:00 AM 26.4051 -81.8063 356° North  Level FlightAware Approximate
Wed 09:53:00 AM 26.4305 -81.8085 356° North  Level FlightAware Approximate
Wed 09:54:00 AM 26.4558 -81.8107 356° North  Level FlightAware Approximate
Wed 09:55:00 AM 26.4811 -81.8129 356° North  Level FlightAware Approximate
Wed 09:56:00 AM 26.5065 -81.8150 356° North  Level FlightAware Approximate
Wed 09:57:00 AM 26.5319 -81.8172 356° North  Level FlightAware Approximate
Wed 09:58:00 AM 26.5572 -81.8194 356° North  Level FlightAware Approximate
Wed 09:59:00 AM 26.5826 -81.8216 356° North  Level FlightAware Approximate
Wed 10:00:00 AM 26.6079 -81.8238 356° North  Level FlightAware Approximate
Wed 10:01:00 AM 26.6332 -81.8260 356° North  Level FlightAware Approximate
Wed 10:02:00 AM 26.6586 -81.8282 356° North  Level FlightAware Approximate
Wed 10:03:00 AM 26.6840 -81.8304 356° North  Level FlightAware Approximate
Wed 10:04:00 AM 26.7093 -81.8326 356° North  Level FlightAware Approximate
Wed 10:04:51 AM 26.5881 -81.8508 356° North 95 109 6,000  Level Miami Center
Wed 10:05:00 AM 26.7346 -81.8348 356° North  Level FlightAware Approximate
Wed 10:05:51 AM 26.6150 -81.8542 354° North 95 109 6,000  Level Miami Center
Wed 10:06:00 AM 26.7600 -81.8370 356° North  Level FlightAware Approximate
Wed 10:06:51 AM 26.6422 -81.8556 357° North 100 115 6,000  Level Miami Center
Wed 10:07:00 AM 26.7854 -81.8392 356° North  Level FlightAware Approximate
Wed 10:07:51 AM 26.6711 -81.8614 350° North 100 115 6,000  Level Miami Center
Wed 10:08:00 AM 26.8107 -81.8414 356° North  Level FlightAware Approximate
Wed 10:08:51 AM 26.7003 -81.8650 354° North 105 121 6,000  Level Miami Center
Wed 10:09:00 AM 26.8361 -81.8436 356° North  Level FlightAware Approximate
Wed 10:09:51 AM 26.7336 -81.8664 358° North 105 121 6,000  Level Miami Center
Wed 10:10:51 AM 26.7608 -81.8675 358° North 105 121 6,000  Level Miami Center
Wed 10:11:51 AM 26.7919 -81.8711 354° North 105 121 6,000  Level Miami Center
Wed 10:12:51 AM 26.8211 -81.8700 North 105 121 6,000  Level Miami Center
Wed 10:13:51 AM 26.8506 -81.8714 358° North 105 121 6,000  Level Miami Center
Wed 10:14:51 AM 26.8797 -81.8725 358° North 113 130 6,000  Level Miami Center
Wed 10:15:51 AM 26.9089 -81.8739 358° North 113 130 6,000  Level Miami Center
Wed 10:16:51 AM 26.9378 -81.8775 354° North 102 117 6,000  Level Miami Center
Wed 10:17:51 AM 26.9669 -81.8811 354° North 102 117 6,000  Level Miami Center
Wed 10:18:51 AM 26.9961 -81.8844 354° North 102 117 6,000  Level Miami Center
Wed 10:19:51 AM 27.0231 -81.8881 353° North 102 117 6,000  Level Miami Center
Wed 10:20:51 AM 27.0500 -81.8917 353° North 102 117 6,000  Level Miami Center
Wed 10:21:51 AM 27.0792 -81.8953 354° North 102 117 6,000  Level Miami Center
Wed 10:22:51 AM 27.1083 -81.8964 358° North 102 117 6,000  Level Miami Center
Wed 10:23:51 AM 27.1375 -81.9025 349° North 102 117 6,000  Level Miami Center
Wed 10:24:51 AM 27.1664 -81.9058 354° North 102 117 6,000  Level Miami Center
Wed 10:25:51 AM 27.1914 -81.9094 353° North 102 117 6,000  Level Miami Center
Wed 10:26:51 AM 27.2225 -81.9131 354° North 102 117 6,000  Level Miami Center
Wed 10:27:51 AM 27.2517 -81.9167 354° North 102 117 6,000 50 Level Miami Center
Wed 10:28:51 AM 27.2786 -81.9203 353° North 102 117 6,100 50 Climbing Miami Center
Wed 10:29:51 AM 27.3078 -81.9239 354° North 102 117 6,100  Level Miami Center
Wed 10:30:51 AM 27.3347 -81.9272 354° North 102 117 6,100  Level Miami Center
Wed 10:31:51 AM 27.3639 -81.9286 358° North 102 117 6,100  Level Miami Center
Wed 10:32:51 AM 27.3911 -81.9322 353° North 102 117 6,100  Level Miami Center
Wed 10:33:51 AM 27.4181 -81.9356 354° North 102 117 6,100  Level Miami Center
Wed 10:34:51 AM 27.4450 -81.9392 353° North 102 117 6,100  Level Miami Center
Wed 10:35:51 AM 27.4742 -81.9428 354° North 102 117 6,100  Level Miami Center
Wed 10:36:51 AM 27.5011 -81.9464 353° North 102 117 6,100  Level Miami Center
Wed 10:37:51 AM 27.5281 -81.9500 353° North 102 117 6,100  Level Miami Center
Wed 10:38:51 AM 27.5594 -81.9489 North 102 117 6,100  Level Miami Center
Wed 10:39:51 AM 27.5886 -81.9525 354° North 102 117 6,100  Level Miami Center
Wed 10:40:51 AM 27.6136 -81.9536 358° North 102 117 6,100  Level Miami Center
Wed 10:41:51 AM 27.6428 -81.9550 358° North 101 116 6,100  Level Miami Center
Wed 10:42:51 AM 27.6717 -81.9586 354° North 101 116 6,100  Level Miami Center
Wed 10:43:51 AM 27.7008 -81.9622 354° North 101 116 6,100  Level Miami Center
Wed 10:44:51 AM 27.7258 -81.9633 358° North 101 116 6,100  Level Miami Center
Wed 10:45:51 AM 27.7550 -81.9647 358° North 101 116 6,100  Level Miami Center
Wed 10:46:51 AM 27.7861 -81.9708 350° North 101 116 6,100  Level Miami Center
Wed 10:47:51 AM 27.8172 -81.9792 347° North 101 116 6,100  Level Miami Center
Wed 10:48:51 AM 27.8461 -81.9853 349° North 101 116 6,100  Level Miami Center
Wed 10:49:51 AM 27.8731 -81.9936 345° North 101 116 6,100  Level Miami Center
Wed 10:50:46 AM 27.9000 -82.0000 348° North 106 122 6,100  Level Tampa TRACON
Wed 10:51:46 AM 27.9333 -82.0000 360° North 107 123 6,100  Level Tampa TRACON
Wed 10:52:46 AM 27.9500 -82.0167 319° Northwest 107 123 6,100  Level Tampa TRACON
Wed 10:53:46 AM 27.9833 -82.0167 360° North 105 121 6,100  Level Tampa TRACON
Wed 10:54:46 AM 28.0167 -82.0333 336° Northwest 104 120 6,100  Level Tampa TRACON
Wed 10:55:46 AM 28.0500 -82.0333 360° North 106 122 6,100  Level Tampa TRACON
Wed 10:56:46 AM 28.0667 -82.0333 360° North 105 121 6,100  Level Tampa TRACON
Wed 10:57:52 AM 28.1000 -82.0500 336° Northwest 110 127 6,100  Level Tampa TRACON
Wed 10:58:46 AM 28.1333 -82.0500 360° North 107 123 6,100  Level Tampa TRACON
Wed 10:59:46 AM 28.1667 -82.0500 360° North 107 123 6,100  Level Tampa TRACON
Wed 11:00:46 AM 28.2000 -82.0667 336° Northwest 108 124 6,100  Level Tampa TRACON
Wed 11:01:52 AM 28.2167 -82.0667 360° North 109 125 6,100  Level Tampa TRACON
Wed 11:02:52 AM 28.2500 -82.0833 336° Northwest 110 127 6,100  Level Tampa TRACON
Wed 11:03:53 AM 28.2833 -82.0833 360° North 107 123 6,100  Level Tampa TRACON
Wed 11:04:53 AM 28.3167 -82.0833 360° North 110 127 6,100  Level Tampa TRACON
Wed 11:05:52 AM 28.3500 -82.1000 336° Northwest 107 123 6,100  Level Tampa TRACON
Wed 11:06:46 AM 28.3667 -82.1000 360° North 107 123 6,100  Level Tampa TRACON
Wed 11:07:41 AM 28.4000 -82.1000 360° North 106 122 6,100  Level Tampa TRACON
Wed 11:08:41 AM 28.4333 -82.1000 360° North 108 124 6,100  Level Tampa TRACON
Wed 11:09:41 AM 28.4500 -82.1167 319° Northwest 109 125 6,100  Level Tampa TRACON
Wed 11:10:21 AM 28.4753 -82.1181 357° North 110 127 6,100  Level Jacksonville Center
Wed 11:11:03 AM 28.5003 -82.1178 North 113 130 6,100 -58 Level Jacksonville Center
Wed 11:12:04 AM 28.5294 -82.1222 352° North 114 131 6,000 -49 Descending Jacksonville Center
Wed 11:13:06 AM 28.5608 -82.1292 349° North 113 130 6,000  Level Jacksonville Center
Wed 11:14:12 AM 28.5964 -82.1358 351° North 111 128 6,000  Level Jacksonville Center
Wed 11:15:13 AM 28.6278 -82.1381 356° North 110 127 6,000  Level Jacksonville Center
Wed 11:16:14 AM 28.6569 -82.1425 352° North 110 127 6,000 -148 Level Jacksonville Center
Wed 11:17:15 AM 28.6883 -82.1447 356° North 111 128 5,700 -393 Descending Jacksonville Center
Wed 11:18:16 AM 28.7197 -82.1564 342° North 102 117 5,200 -517 Descending Jacksonville Center
Wed 11:19:11 AM 28.7425 -82.1608 350° North 96 110 4,700 -466 Descending Jacksonville Center
Wed 11:20:12 AM 28.7678 -82.1656 351° North 94 108 4,300 -466 Descending Jacksonville Center
Wed 11:21:07 AM 28.7969 -82.1722 349° North 108 124 3,800 -492 Descending Jacksonville Center
Wed 11:22:14 AM 28.8325 -82.1792 350° North 124 143 3,300 -639 Descending Jacksonville Center
Wed 11:23:09 AM 28.8639 -82.1836 353° North 122 140 2,500 -672 Descending Jacksonville Center
Wed 11:24:10 AM 28.8950 -82.1906 349° North 121 139 2,000 -248 Descending Jacksonville Center
Wed 11:25:10 AM 28.9222 -82.1953 351° North 97 112 2,000  Level Jacksonville Center
Wed 11:26:11 AM 28.9494 -82.1972 356° North 93 107 2,000  Level Jacksonville Center
Wed 11:27:12 AM 28.9828 -82.1994 357° North 110 127 2,000  Level Jacksonville Center
Wed 11:28:13 AM 29.0122 -82.2039 352° North 110 127 2,000  Level Jacksonville Center
Wed 11:29:14 AM 29.0433 -82.2133 345° North 109 125 2,000 -98 Level Jacksonville Center
Wed 11:30:15 AM 29.0686 -82.2275 334° Northwest 107 123 1,800 -295 Descending Jacksonville Center
Wed 11:31:16 AM 29.0958 -82.2272 North 97 112 1,400 -492 Descending Jacksonville Center
Wed 11:32:17 AM 29.1269 -82.2269 360° North 93 107 800 -590 Descending Jacksonville Center

Login

Don't have an account? Register now (free) for customized features, flight alerts, and more!